createdAt,value
2022-08-17T00:00:51.791Z,21.63
2022-08-17T00:03:23.911Z,25.40
2022-08-17T00:05:55.633Z,25.13
2022-08-17T00:08:27.344Z,24.13
2022-08-17T00:10:59.665Z,28.20
2022-08-17T00:13:32.604Z,24.97
2022-08-17T00:16:05.360Z,21.33
2022-08-17T00:19:01.221Z,20.07
2022-08-17T00:21:26.006Z,22.70
2022-08-17T00:24:15.829Z,25.77
2022-08-17T00:26:47.986Z,21.60
2022-08-17T00:29:20.053Z,22.53
2022-08-17T00:31:50.023Z,26.70
2022-08-17T00:34:19.931Z,21.20
2022-08-17T00:36:49.417Z,23.03
2022-08-17T00:39:18.937Z,20.33
2022-08-17T00:41:51.061Z,23.97
2022-08-17T00:44:20.575Z,27.87
2022-08-17T00:46:51.302Z,25.63
2022-08-17T00:49:23.703Z,26.20
2022-08-17T00:51:56.301Z,28.40
2022-08-17T00:54:28.646Z,26.03
2022-08-17T00:57:05.941Z,26.33
2022-08-17T00:59:41.109Z,31.60
2022-08-17T01:02:12.774Z,27.90
2022-08-17T01:04:42.280Z,23.47
2022-08-17T01:07:12.211Z,25.10
2022-08-17T01:09:43.037Z,26.23
2022-08-17T01:12:15.186Z,24.47
2022-08-17T01:14:44.704Z,25.70
2022-08-17T01:17:14.435Z,31.47
2022-08-17T01:19:45.492Z,28.57
2022-08-17T01:22:23.113Z,28.60
2022-08-17T01:24:54.850Z,32.77
2022-08-17T01:27:24.634Z,30.73
2022-08-17T01:29:58.603Z,32.90
2022-08-17T01:32:28.706Z,29.70
2022-08-17T01:34:58.186Z,23.10
2022-08-17T01:37:34.592Z,26.00
2022-08-17T01:40:08.797Z,21.70
2022-08-17T01:42:41.469Z,23.70
2022-08-17T01:45:13.685Z,23.97
2022-08-17T01:47:43.432Z,23.07
2022-08-17T01:50:15.903Z,22.90
2022-08-17T01:52:49.359Z,24.90
2022-08-17T01:55:24.613Z,23.27
2022-08-17T01:57:56.699Z,25.33
2022-08-17T02:00:26.370Z,23.60
2022-08-17T02:03:15.855Z,24.40
2022-08-17T02:05:45.363Z,27.50
2022-08-17T02:08:20.132Z,24.67
2022-08-17T02:10:50.608Z,25.20
2022-08-17T02:13:22.102Z,24.30
2022-08-17T02:15:51.632Z,24.50
2022-08-17T02:18:21.153Z,25.50
2022-08-17T02:20:50.619Z,23.67
2022-08-17T02:23:23.382Z,27.20
2022-08-17T02:25:53.024Z,29.20
2022-08-17T02:28:22.497Z,27.03
2022-08-17T02:31:01.794Z,30.47
2022-08-17T02:33:41.965Z,29.57
2022-08-17T02:36:13.924Z,30.07
2022-08-17T02:38:46.362Z,30.00
2022-08-17T02:41:15.822Z,30.73
2022-08-17T02:43:45.363Z,29.97
2022-08-17T02:46:15.395Z,30.30
2022-08-17T02:48:44.870Z,32.93
2022-08-17T02:51:14.311Z,32.10
2022-08-17T02:53:49.475Z,32.93
2022-08-17T02:56:18.941Z,32.07
2022-08-17T02:58:48.441Z,29.67
2022-08-17T03:01:18.503Z,30.50
2022-08-17T03:03:48.043Z,31.07
2022-08-17T03:06:17.555Z,29.70
2022-08-17T03:08:49.651Z,28.10
2022-08-17T03:11:19.190Z,29.53
2022-08-17T03:13:48.704Z,29.80
2022-08-17T03:16:18.205Z,103.77
2022-08-17T03:18:49.099Z,51.03
2022-08-17T03:21:18.583Z,32.00
2022-08-17T03:23:54.746Z,32.73
2022-08-17T03:26:24.331Z,32.17
2022-08-17T03:28:59.152Z,30.83
2022-08-17T03:31:28.655Z,34.93
2022-08-17T03:33:58.157Z,37.33
2022-08-17T03:36:28.370Z,29.43
2022-08-17T03:39:00.399Z,33.70
2022-08-17T03:41:29.897Z,32.30
2022-08-17T03:43:59.414Z,46.00
2022-08-17T03:46:41.702Z,37.50
2022-08-17T03:49:24.033Z,36.03
2022-08-17T03:52:06.156Z,34.50
2022-08-17T03:54:50.719Z,34.13
2022-08-17T03:57:20.396Z,36.47
2022-08-17T03:59:50.052Z,34.47
2022-08-17T04:02:22.357Z,33.43
2022-08-17T04:04:52.842Z,32.43
2022-08-17T04:07:23.134Z,32.50
2022-08-17T04:09:55.231Z,32.73
2022-08-17T04:12:25.868Z,33.70
2022-08-17T04:14:55.462Z,38.33
2022-08-17T04:17:26.383Z,33.20
2022-08-17T04:19:56.821Z,37.30
2022-08-17T04:22:30.189Z,39.60
2022-08-17T04:25:09.143Z,35.80
2022-08-17T04:27:38.741Z,37.67
2022-08-17T04:30:09.986Z,33.33
2022-08-17T04:33:05.146Z,34.80
2022-08-17T04:35:38.395Z,37.10
2022-08-17T04:38:08.453Z,38.93
2022-08-17T04:40:53.187Z,38.40
2022-08-17T04:43:24.463Z,34.43
2022-08-17T04:45:57.013Z,34.50
2022-08-17T04:48:35.410Z,36.70
2022-08-17T04:51:10.680Z,36.00
2022-08-17T04:53:41.343Z,34.00
2022-08-17T04:56:16.784Z,35.07
2022-08-17T04:58:47.941Z,42.50
2022-08-17T05:01:23.419Z,41.73
2022-08-17T05:03:54.418Z,41.90
2022-08-17T05:06:24.022Z,46.73
2022-08-17T05:08:53.612Z,44.47
2022-08-17T05:11:26.100Z,40.83
2022-08-17T05:13:56.195Z,41.60
2022-08-17T05:16:26.792Z,39.67
2022-08-17T05:18:56.702Z,37.63
2022-08-17T05:21:26.337Z,37.27
2022-08-17T05:23:58.426Z,33.70
2022-08-17T05:26:31.597Z,34.47
2022-08-17T05:29:05.982Z,36.47
2022-08-17T05:31:35.432Z,45.80
2022-08-17T05:34:04.911Z,31.63
2022-08-17T05:36:43.580Z,29.87
2022-08-17T05:39:16.816Z,33.73
2022-08-17T05:41:50.613Z,39.27
2022-08-17T05:44:20.078Z,36.83
2022-08-17T05:46:52.181Z,34.93
2022-08-17T05:49:25.430Z,33.20
2022-08-17T05:52:20.406Z,32.37
2022-08-17T05:55:02.270Z,29.97
2022-08-17T05:57:43.619Z,28.57
2022-08-17T06:00:29.987Z,31.50
2022-08-17T06:03:07.503Z,28.83
2022-08-17T06:05:46.724Z,35.90
2022-08-17T06:08:24.791Z,35.40
2022-08-17T06:11:06.223Z,36.33
2022-08-17T06:13:53.279Z,35.10
2022-08-17T06:16:34.091Z,36.90
2022-08-17T06:19:07.337Z,33.87
2022-08-17T06:21:39.362Z,38.80
2022-08-17T06:24:11.521Z,32.93
2022-08-17T06:26:44.263Z,27.53
2022-08-17T06:29:23.057Z,29.10
2022-08-17T06:31:52.553Z,28.57
2022-08-17T06:34:22.147Z,27.63
2022-08-17T06:36:56.547Z,25.80
2022-08-17T06:39:38.601Z,26.57
2022-08-17T06:43:00.850Z,25.73
2022-08-17T06:45:11.673Z,24.03
2022-08-17T06:47:47.514Z,22.87
2022-08-17T06:50:21.121Z,23.87
2022-08-17T06:52:55.315Z,23.13
2022-08-17T06:55:28.989Z,25.13
2022-08-17T06:58:15.621Z,24.40
2022-08-17T07:00:55.318Z,23.73
2022-08-17T07:03:38.442Z,23.17
2022-08-17T07:06:11.583Z,21.33
2022-08-17T07:08:54.210Z,22.30
2022-08-17T07:11:29.725Z,31.77
2022-08-17T07:14:07.468Z,25.77
2022-08-17T07:16:44.078Z,20.87
2022-08-17T07:19:15.205Z,23.70
2022-08-17T07:21:51.734Z,22.43
2022-08-17T07:24:35.517Z,20.53
2022-08-17T07:27:10.917Z,21.10
2022-08-17T07:29:44.055Z,18.70
2022-08-17T07:32:19.015Z,17.57
2022-08-17T07:35:11.213Z,18.97
2022-08-17T07:37:41.754Z,17.13
2022-08-17T07:40:29.220Z,17.60
2022-08-17T07:43:15.522Z,16.20
2022-08-17T07:46:30.754Z,13.17
2022-08-17T07:49:22.786Z,13.43
2022-08-17T07:52:47.738Z,13.97
2022-08-17T07:54:50.826Z,18.40
2022-08-17T07:57:38.171Z,14.90
2022-08-17T08:00:31.799Z,20.63
2022-08-17T08:03:16.609Z,13.93
2022-08-17T08:06:01.336Z,14.40
2022-08-17T08:08:34.193Z,41.40
2022-08-17T08:11:09.859Z,14.90
2022-08-17T08:13:43.940Z,17.80
2022-08-17T08:16:27.124Z,10.60
2022-08-17T08:18:58.712Z,10.27
2022-08-17T08:21:38.308Z,10.97
2022-08-17T08:24:30.176Z,11.13
2022-08-17T08:27:08.150Z,10.83
2022-08-17T08:29:44.998Z,13.90
2022-08-17T08:32:21.030Z,11.13
2022-08-17T08:35:01.683Z,10.50
2022-08-17T08:37:43.167Z,12.43
2022-08-17T08:40:24.819Z,13.47
2022-08-17T08:43:05.062Z,11.27
2022-08-17T08:45:40.795Z,20.33
2022-08-17T08:48:53.123Z,16.13
2022-08-17T08:51:15.447Z,20.53
2022-08-17T08:53:54.722Z,14.33
2022-08-17T08:56:30.391Z,10.60
2022-08-17T08:59:04.907Z,11.33
2022-08-17T09:01:40.507Z,29.43
2022-08-17T09:04:26.969Z,12.00
2022-08-17T09:07:03.866Z,9.60
2022-08-17T09:09:42.447Z,9.33
2022-08-17T09:12:17.092Z,10.30
2022-08-17T09:14:53.008Z,9.30
2022-08-17T09:17:25.405Z,9.00
2022-08-17T09:19:58.294Z,10.20
2022-08-17T09:22:33.273Z,10.90
2022-08-17T09:25:10.958Z,13.97
2022-08-17T09:28:00.731Z,10.67
2022-08-17T09:30:33.626Z,8.47
2022-08-17T09:33:05.349Z,9.00
2022-08-17T09:35:39.512Z,24.47
2022-08-17T09:38:20.068Z,11.67
2022-08-17T09:40:55.799Z,10.97
2022-08-17T09:43:30.720Z,9.30
2022-08-17T09:46:04.544Z,9.00
2022-08-17T09:48:39.070Z,9.03
2022-08-17T09:51:12.125Z,16.77
2022-08-17T09:53:44.552Z,9.97
2022-08-17T09:56:43.732Z,10.60
2022-08-17T09:59:27.789Z,15.27
2022-08-17T10:02:19.890Z,9.47
2022-08-17T10:04:52.698Z,69.47
2022-08-17T10:07:25.440Z,9.00
2022-08-17T10:10:00.718Z,9.30
2022-08-17T10:12:43.147Z,28.13
2022-08-17T10:15:22.707Z,34.63
2022-08-17T10:18:08.138Z,10.93
2022-08-17T10:20:44.509Z,38.83
2022-08-17T10:23:29.466Z,11.33
2022-08-17T10:26:18.403Z,11.30
2022-08-17T10:28:55.128Z,8.50
2022-08-17T10:31:36.553Z,8.50
2022-08-17T10:34:29.883Z,9.63
2022-08-17T10:37:14.999Z,8.50
2022-08-17T10:39:52.982Z,8.17
2022-08-17T10:42:30.868Z,7.93
2022-08-17T10:45:08.542Z,8.03
2022-08-17T10:48:04.694Z,8.30
2022-08-17T10:50:52.869Z,7.27
2022-08-17T10:54:07.089Z,7.17
2022-08-17T10:56:46.917Z,7.40
2022-08-17T10:59:50.417Z,8.40
2022-08-17T11:02:27.529Z,27.13
2022-08-17T11:05:08.934Z,7.57
2022-08-17T11:07:49.491Z,8.00
2022-08-17T11:10:29.087Z,9.40
2022-08-17T11:13:04.751Z,9.37
2022-08-17T11:15:47.476Z,9.60
2022-08-17T11:18:33.809Z,7.80
2022-08-17T11:21:52.713Z,7.20
2022-08-17T11:24:24.177Z,7.30
2022-08-17T11:27:07.669Z,7.07
2022-08-17T11:29:53.100Z,7.20
2022-08-17T11:32:47.486Z,7.63
2022-08-17T11:35:34.929Z,7.23
2022-08-17T11:38:19.378Z,8.00
2022-08-17T11:41:13.626Z,6.50
2022-08-17T11:44:15.670Z,7.57
2022-08-17T11:47:14.426Z,8.17
2022-08-17T11:50:12.395Z,7.80
2022-08-17T11:52:47.045Z,9.50
2022-08-17T11:55:57.984Z,10.57
2022-08-17T11:58:43.077Z,6.90
2022-08-17T12:01:16.105Z,6.70
2022-08-17T12:03:56.987Z,47.30
2022-08-17T12:06:48.364Z,6.60
2022-08-17T12:09:25.098Z,6.33
2022-08-17T12:12:12.781Z,6.77
2022-08-17T12:17:40.503Z,7.13
2022-08-17T12:20:15.598Z,7.63
2022-08-17T12:22:53.420Z,6.53
2022-08-17T12:25:31.443Z,6.73
2022-08-17T12:28:06.119Z,6.30
2022-08-17T12:30:38.643Z,6.83
2022-08-17T12:33:27.797Z,8.37
2022-08-17T12:36:00.679Z,6.90
2022-08-17T12:38:33.153Z,7.10
2022-08-17T12:41:26.889Z,7.47
2022-08-17T12:44:01.820Z,7.17
2022-08-17T12:46:33.754Z,8.10
2022-08-17T12:49:29.646Z,7.30
2022-08-17T12:52:06.180Z,7.67
2022-08-17T12:54:42.338Z,8.90
2022-08-17T12:57:19.983Z,7.57
2022-08-17T12:59:53.371Z,6.40
2022-08-17T13:02:28.546Z,7.23
2022-08-17T13:04:59.621Z,7.50
2022-08-17T13:07:31.405Z,6.63
2022-08-17T13:10:01.227Z,6.97
2022-08-17T13:12:38.471Z,6.40
2022-08-17T13:15:08.939Z,7.17
2022-08-17T13:17:38.979Z,6.10
2022-08-17T13:20:17.457Z,7.50
2022-08-17T13:22:55.716Z,6.43
2022-08-17T13:25:25.390Z,6.40
2022-08-17T13:27:58.431Z,6.70
2022-08-17T13:30:32.653Z,7.10
2022-08-17T13:33:04.846Z,7.03
2022-08-17T13:35:50.214Z,6.60
2022-08-17T13:38:39.439Z,10.40
2022-08-17T13:41:09.109Z,8.00
2022-08-17T13:43:49.713Z,20.87
2022-08-17T13:46:24.371Z,8.97
2022-08-17T13:49:02.632Z,9.27
2022-08-17T13:51:35.926Z,7.20
2022-08-17T13:54:30.114Z,9.10
2022-08-17T13:57:04.656Z,8.20
2022-08-17T13:59:55.125Z,17.77
2022-08-17T14:02:28.371Z,12.47
2022-08-17T14:05:00.871Z,7.43
2022-08-17T14:07:33.829Z,7.60
2022-08-17T14:10:07.055Z,19.87
2022-08-17T14:12:37.849Z,8.80
2022-08-17T14:15:11.898Z,8.47
2022-08-17T14:17:41.540Z,10.70
2022-08-17T14:20:14.150Z,8.10
2022-08-17T14:22:48.325Z,14.43
2022-08-17T14:25:19.762Z,9.30
2022-08-17T14:27:52.623Z,22.97
2022-08-17T14:30:29.837Z,8.60
2022-08-17T14:33:02.139Z,11.23
2022-08-17T14:35:31.931Z,13.17
2022-08-17T14:38:02.155Z,8.77
2022-08-17T14:40:31.692Z,8.30
2022-08-17T14:43:01.362Z,8.27
2022-08-17T14:45:33.889Z,9.17
2022-08-17T14:48:07.644Z,17.97
2022-08-17T14:50:38.444Z,8.40
2022-08-17T14:53:08.982Z,9.23
2022-08-17T14:55:40.467Z,28.03
2022-08-17T14:58:10.451Z,23.00
2022-08-17T15:00:43.691Z,49.83
2022-08-17T15:03:15.492Z,82.20
2022-08-17T15:05:46.407Z,35.67
2022-08-17T15:08:16.659Z,35.90
2022-08-17T15:10:49.251Z,84.73
2022-08-17T15:13:21.822Z,134.40
2022-08-17T15:15:54.522Z,91.80
2022-08-17T15:18:25.026Z,134.77
2022-08-17T15:20:54.766Z,13.17
2022-08-17T15:23:27.086Z,21.00
2022-08-17T15:25:57.628Z,52.70
2022-08-17T15:28:27.300Z,20.07
2022-08-17T15:30:59.417Z,14.30
2022-08-17T15:33:31.879Z,10.83
2022-08-17T15:36:03.861Z,32.53
2022-08-17T15:38:39.197Z,10.53
2022-08-17T15:41:10.174Z,17.83
2022-08-17T15:43:40.174Z,23.30
2022-08-17T15:46:15.455Z,18.93
2022-08-17T15:48:46.306Z,12.23
2022-08-17T15:51:17.507Z,16.27
2022-08-17T15:53:50.782Z,16.20
2022-08-17T15:56:20.570Z,13.97
2022-08-17T15:58:50.870Z,12.80
2022-08-17T16:01:57.378Z,11.40
2022-08-17T16:04:29.711Z,20.60
2022-08-17T16:07:00.454Z,31.93
2022-08-17T16:09:30.197Z,14.97
2022-08-17T16:11:59.759Z,40.23
2022-08-17T16:14:33.587Z,10.73
2022-08-17T16:17:39.098Z,14.20
2022-08-17T16:19:59.599Z,27.50
2022-08-17T16:22:35.011Z,15.43
2022-08-17T16:25:06.402Z,16.73
2022-08-17T16:27:35.927Z,27.90
2022-08-17T16:30:06.046Z,14.00
2022-08-17T16:32:38.280Z,16.10
2022-08-17T16:35:10.690Z,27.27
2022-08-17T16:37:40.305Z,45.73
2022-08-17T16:40:15.463Z,36.57
2022-08-17T16:42:45.558Z,26.93
2022-08-17T16:45:18.413Z,21.83
2022-08-17T16:47:51.044Z,13.90
2022-08-17T16:50:22.489Z,33.57
2022-08-17T16:52:53.101Z,21.53
2022-08-17T16:55:24.337Z,14.50
2022-08-17T16:57:53.856Z,33.43
2022-08-17T17:00:23.410Z,12.10
2022-08-17T17:02:56.478Z,22.20
2022-08-17T17:05:31.274Z,10.50
2022-08-17T17:08:07.746Z,11.90
2022-08-17T17:10:41.555Z,34.47
2022-08-17T17:13:14.493Z,12.57
2022-08-17T17:15:57.346Z,11.63
2022-08-17T17:18:38.911Z,10.63
2022-08-17T17:21:09.006Z,13.43
2022-08-17T17:23:45.130Z,11.93
2022-08-17T17:26:27.362Z,11.07
2022-08-17T17:29:07.991Z,9.60
2022-08-17T17:31:42.940Z,11.57
2022-08-17T17:34:18.011Z,13.43
2022-08-17T17:36:51.882Z,11.93
2022-08-17T17:39:23.522Z,15.47
2022-08-17T17:41:56.228Z,17.03
2022-08-17T17:44:28.994Z,11.77
2022-08-17T17:47:02.838Z,12.03
2022-08-17T17:49:37.173Z,11.00
2022-08-17T17:52:14.572Z,14.57
2022-08-17T17:54:55.287Z,10.90
2022-08-17T17:57:32.330Z,9.73
2022-08-17T18:00:08.010Z,9.87
2022-08-17T18:02:51.264Z,11.93
2022-08-17T18:05:36.796Z,10.13
2022-08-17T18:08:13.406Z,9.90
2022-08-17T18:10:50.283Z,15.30
2022-08-17T18:13:27.604Z,8.53
2022-08-17T18:16:01.026Z,10.60
2022-08-17T18:18:40.381Z,9.60
2022-08-17T18:21:19.473Z,9.03
2022-08-17T18:23:50.895Z,8.70
2022-08-17T18:26:39.373Z,9.03
2022-08-17T18:29:25.443Z,9.43
2022-08-17T18:32:27.551Z,8.30
2022-08-17T18:34:59.595Z,8.50
2022-08-17T18:37:44.919Z,9.53
2022-08-17T18:40:31.963Z,9.10
2022-08-17T18:43:06.924Z,8.90
2022-08-17T18:45:41.301Z,9.20
2022-08-17T18:48:33.040Z,7.90
2022-08-17T18:51:04.494Z,8.57
2022-08-17T18:53:40.903Z,9.17
2022-08-17T18:56:27.899Z,10.13
2022-08-17T18:59:14.697Z,11.10
2022-08-17T19:01:52.770Z,12.20
2022-08-17T19:04:36.572Z,12.40
2022-08-17T19:07:28.235Z,9.97
2022-08-17T19:10:08.564Z,11.00
2022-08-17T19:12:42.738Z,12.47
2022-08-17T19:15:14.858Z,12.17
2022-08-17T19:17:48.606Z,14.87
2022-08-17T19:20:21.357Z,12.93
2022-08-17T19:23:08.483Z,12.90
2022-08-17T19:25:45.433Z,13.47
2022-08-17T19:28:22.618Z,14.80
2022-08-17T19:30:53.767Z,20.77
2022-08-17T19:33:23.263Z,15.33
2022-08-17T19:36:00.748Z,15.40
2022-08-17T19:38:39.574Z,15.43
2022-08-17T19:41:17.176Z,16.50
2022-08-17T19:44:12.263Z,17.30
2022-08-17T19:46:49.977Z,17.70
2022-08-17T19:49:34.476Z,17.23
2022-08-17T19:52:24.142Z,20.03
2022-08-17T19:54:59.156Z,14.70
2022-08-17T19:57:40.087Z,16.27
2022-08-17T20:00:13.026Z,15.40
2022-08-17T20:02:50.683Z,14.33
2022-08-17T20:05:23.439Z,15.87
2022-08-17T20:07:57.019Z,21.03
2022-08-17T20:10:45.219Z,16.40
2022-08-17T20:13:33.028Z,16.20
2022-08-17T20:16:03.851Z,15.57
2022-08-17T20:18:38.230Z,20.07
2022-08-17T20:21:20.348Z,17.27
2022-08-17T20:23:55.785Z,18.50
2022-08-17T20:26:28.930Z,19.33
2022-08-17T20:29:37.623Z,20.13
2022-08-17T20:32:32.378Z,19.80
2022-08-17T20:35:08.635Z,20.60
2022-08-17T20:37:43.141Z,40.40
2022-08-17T20:40:25.967Z,32.80
2022-08-17T20:42:55.650Z,18.53
2022-08-17T20:45:55.336Z,24.00
2022-08-17T20:48:38.375Z,21.07
2022-08-17T20:51:22.348Z,26.63
2022-08-17T20:54:09.857Z,19.43
2022-08-17T20:56:57.829Z,17.80
2022-08-17T21:00:03.696Z,19.10
2022-08-17T21:02:33.236Z,18.87
2022-08-17T21:05:41.422Z,22.50
2022-08-17T21:08:19.366Z,13.73
2022-08-17T21:10:49.422Z,14.47
2022-08-17T21:13:53.195Z,13.20
2022-08-17T21:16:47.395Z,14.70
2022-08-17T21:19:48.982Z,20.70
2022-08-17T21:22:34.563Z,16.93
2022-08-17T21:25:17.311Z,17.27
2022-08-17T21:27:52.425Z,15.87
2022-08-17T21:30:47.653Z,17.33
2022-08-17T21:33:27.121Z,18.87
2022-08-17T21:36:18.220Z,17.90
2022-08-17T21:39:06.449Z,14.37
2022-08-17T21:41:52.792Z,15.40
2022-08-17T21:44:30.924Z,16.17
2022-08-17T21:47:16.755Z,15.13
2022-08-17T21:49:46.386Z,14.10
2022-08-17T21:52:17.682Z,14.63
2022-08-17T21:54:52.216Z,13.37
2022-08-17T21:57:27.592Z,13.70
2022-08-17T22:00:00.518Z,14.40
2022-08-17T22:02:32.153Z,12.47
2022-08-17T22:05:03.550Z,12.10
2022-08-17T22:07:38.430Z,11.00
2022-08-17T22:10:10.071Z,11.20
2022-08-17T22:12:43.190Z,10.43
2022-08-17T22:15:20.557Z,11.50
2022-08-17T22:17:50.933Z,10.10
2022-08-17T22:20:22.938Z,10.77
2022-08-17T22:23:22.111Z,11.83
2022-08-17T22:26:02.547Z,11.47
2022-08-17T22:28:44.331Z,10.73
2022-08-17T22:31:15.427Z,11.13
2022-08-17T22:33:48.999Z,11.90
2022-08-17T22:36:29.096Z,10.10
2022-08-17T22:39:00.260Z,10.70
2022-08-17T22:41:40.727Z,10.07
2022-08-17T22:44:19.366Z,11.70
2022-08-17T22:47:06.723Z,9.40
2022-08-17T22:49:53.248Z,10.33
2022-08-17T22:52:33.650Z,10.53
2022-08-17T22:55:33.835Z,11.70
2022-08-17T22:58:16.486Z,12.10
2022-08-17T23:00:49.932Z,11.67
2022-08-17T23:03:21.338Z,10.13
2022-08-17T23:06:04.922Z,10.27
2022-08-17T23:08:36.934Z,9.90
2022-08-17T23:11:09.283Z,9.83
2022-08-17T23:13:40.383Z,11.47
2022-08-17T23:16:14.906Z,10.53
2022-08-17T23:18:46.106Z,9.37
2022-08-17T23:21:16.033Z,9.97
2022-08-17T23:23:56.200Z,9.90
2022-08-17T23:26:27.767Z,8.63
2022-08-17T23:28:57.269Z,7.90
2022-08-17T23:31:32.995Z,11.50
2022-08-17T23:34:02.676Z,7.70
2022-08-17T23:36:32.523Z,6.90
2022-08-17T23:39:02.059Z,6.27
2022-08-17T23:41:33.666Z,6.47
2022-08-17T23:44:03.673Z,6.40
2022-08-17T23:46:35.938Z,6.03
2022-08-17T23:49:06.715Z,6.17
2022-08-17T23:51:39.750Z,6.20
2022-08-17T23:54:13.603Z,8.53
2022-08-17T23:56:45.606Z,7.10
2022-08-17T23:59:15.605Z,8.00
